首页
METAR-TAF:

METAR-TAF

机场 :

Little Rock Air Force Base

傑克遜維爾, 阿肯色州, 美国

纬度: 34-55N, 经度: 092-09W, 海拔: 95米

当前天气观测

该预报发布于9分钟前的08:56 UTC
静风
温度 15°C
湿度 94%
气压 1022 hPa
能見度: 16.1公里
天空无云

METAR: KLRF 010856Z AUTO 00000KT 10SM CLR 15/14 A3017 RMK AO2 SLP217 T01520142 53001

时间: 04:05 (09:05 UTC)

预报

该预报发布于10小时和5分钟前的23:00 UTC
预报有效从30日的 23点(UTC)到 01日的 05点(UTC)
风速5节,风向东北
能见度10公里或以上
天空无云
成为
从 31日的 16点(UTC)到 31日的 17点(UTC)
风速10节,风向,有时为15节阵风
能见度10公里或以上
少量云层高于9000英尺
成为
从 31日的 20点(UTC)到 31日的 21点(UTC)
风速6节,风向东转东北
能見度: 0115
天空无云

TAF: KLRF 302300Z 3023/0105 04005KT 9999 SKC QNH3010INS BECMG 3116/3117 08010G15KT 9999 FEW090 QNH3019INS BECMG 3120/3121 07006KT 9999 SKC QNH3015INS TX27/3121Z TN15/3111Z LAST NO AMDS AFT 3023 NEXT 0115

超过4000个机场的气象观测和天气预报(METAR&TAF报告)。

可查询的气象台以黄色和红色小点在地图上表示。

将鼠标移到小点上方,可查看气象台名称。

然后点击查看天气观测和预报。

如需切换地图:点击带黑十字的绿色按钮放大地图;点击带横线的绿色按钮缩小地图;或者点击绿色箭头查看邻近地区的地图。


METAR-TAF: